createdAt,value
2017-04-25T00:00:19.300Z,26.33
2017-04-25T00:01:19.357Z,26.14
2017-04-25T00:02:19.361Z,26.14
2017-04-25T00:03:19.317Z,26.43
2017-04-25T00:04:19.325Z,26.43
2017-04-25T00:05:19.334Z,26.14
2017-04-25T00:06:19.334Z,26.53
2017-04-25T00:07:19.079Z,26.23
2017-04-25T00:08:54.220Z,26.14
2017-04-25T00:09:19.601Z,26.14
2017-04-25T00:10:20.060Z,26.43
2017-04-25T00:11:19.524Z,26.33
2017-04-25T00:12:19.466Z,26.53
2017-04-25T00:13:19.471Z,26.62
2017-04-25T00:14:19.452Z,26.23
2017-04-25T00:15:19.436Z,26.43
2017-04-25T00:16:19.840Z,26.04
2017-04-25T00:17:19.492Z,26.43
2017-04-25T00:18:20.058Z,26.33
2017-04-25T00:19:19.503Z,26.33
2017-04-25T00:20:19.462Z,26.14
2017-04-25T00:21:19.568Z,26.23
2017-04-25T00:22:19.115Z,26.14
2017-04-25T00:23:19.510Z,26.04
2017-04-25T00:24:19.443Z,25.95
2017-04-25T00:25:19.443Z,25.95
2017-04-25T00:26:19.498Z,25.95
2017-04-25T00:27:19.453Z,25.85
2017-04-25T00:28:19.459Z,25.85
2017-04-25T00:29:19.467Z,25.75
2017-04-25T00:30:19.470Z,26.14
2017-04-25T00:31:19.477Z,25.95
2017-04-25T00:32:19.169Z,26.04
2017-04-25T00:33:19.597Z,25.85
2017-04-25T00:34:19.497Z,25.85
2017-04-25T00:35:19.499Z,26.14
2017-04-25T00:36:19.191Z,26.04
2017-04-25T00:37:19.511Z,25.95
2017-04-25T00:38:19.570Z,25.75
2017-04-25T00:39:19.262Z,25.75
2017-04-25T00:40:19.577Z,25.76
2017-04-25T00:41:19.562Z,25.75
2017-04-25T00:42:19.587Z,25.75
2017-04-25T00:43:19.592Z,25.75
2017-04-25T00:44:19.797Z,25.75
2017-04-25T00:45:19.606Z,25.85
2017-04-25T00:46:19.663Z,25.67
2017-04-25T00:47:19.823Z,25.67
2017-04-25T00:48:19.672Z,25.76
2017-04-25T00:49:19.632Z,25.66
2017-04-25T00:50:20.039Z,25.76
2017-04-25T00:51:19.611Z,25.66
2017-04-25T00:52:19.845Z,25.86
2017-04-25T00:53:19.856Z,25.96
2017-04-25T00:54:19.655Z,25.76
2017-04-25T00:55:19.666Z,25.57
2017-04-25T00:56:19.917Z,25.67
2017-04-25T00:57:19.694Z,25.57
2017-04-25T00:58:19.728Z,25.38
2017-04-25T00:59:19.695Z,25.38
2017-04-25T01:00:19.689Z,25.48
2017-04-25T01:01:19.876Z,25.48
2017-04-25T01:02:19.749Z,25.28
2017-04-25T01:03:19.719Z,25.38
2017-04-25T01:04:19.709Z,25.28
2017-04-25T01:05:19.919Z,25.19
2017-04-25T01:06:19.725Z,25.28
2017-04-25T01:07:20.741Z,25.38
2017-04-25T01:08:20.147Z,25.38
2017-04-25T01:09:19.921Z,25.38
2017-04-25T01:10:19.927Z,25.19
2017-04-25T01:11:20.007Z,25.09
2017-04-25T01:12:20.005Z,24.99
2017-04-25T01:13:19.762Z,24.81
2017-04-25T01:14:20.179Z,25.2
2017-04-25T01:15:19.751Z,24.99
2017-04-25T01:16:19.781Z,24.81
2017-04-25T01:17:19.784Z,25.01
2017-04-25T01:18:19.790Z,24.99
2017-04-25T01:19:19.749Z,25.01
2017-04-25T01:20:19.852Z,25.1
2017-04-25T01:21:20.619Z,24.62
2017-04-25T01:22:19.811Z,24.62
2017-04-25T01:23:19.823Z,24.81
2017-04-25T01:24:19.827Z,24.72
2017-04-25T01:25:19.858Z,24.62
2017-04-25T01:26:20.042Z,24.62
2017-04-25T01:27:19.817Z,24.62
2017-04-25T01:28:19.845Z,24.72
2017-04-25T01:29:19.855Z,24.62
2017-04-25T01:30:19.861Z,24.52
2017-04-25T01:31:20.071Z,24.52
2017-04-25T01:32:19.969Z,24.14
2017-04-25T01:33:19.902Z,24.23
2017-04-25T01:34:20.087Z,24.43
2017-04-25T01:35:19.883Z,24.23
2017-04-25T01:36:19.894Z,24.62
2017-04-25T01:37:19.874Z,24.14
2017-04-25T01:38:19.908Z,24.33
2017-04-25T01:39:19.910Z,24.14
2017-04-25T01:40:19.893Z,24.43
2017-04-25T01:41:20.123Z,24.34
2017-04-25T01:42:20.106Z,24.14
2017-04-25T01:43:20.113Z,24.15
2017-04-25T01:44:20.168Z,24.43
2017-04-25T01:45:20.142Z,24.33
2017-04-25T01:46:20.000Z,24.15
2017-04-25T01:47:19.956Z,24.14
2017-04-25T01:48:20.164Z,24.14
2017-04-25T01:49:19.963Z,24.43
2017-04-25T01:50:19.970Z,24.23
2017-04-25T01:51:19.979Z,24.54
2017-04-25T01:52:20.031Z,24.33
2017-04-25T01:53:20.189Z,24.43
2017-04-25T01:54:20.199Z,23.94
2017-04-25T01:55:20.000Z,24.05
2017-04-25T01:56:20.184Z,24.04
2017-04-25T01:57:20.662Z,24.05
2017-04-25T01:58:20.269Z,24.15
2017-04-25T01:59:20.023Z,24.14
2017-04-25T02:00:20.079Z,24.05
2017-04-25T02:01:20.062Z,24.15
2017-04-25T02:02:20.286Z,24.44
2017-04-25T02:03:20.249Z,23.86
2017-04-25T02:04:20.024Z,24.44
2017-04-25T02:05:20.462Z,24.15
2017-04-25T02:06:20.086Z,24.24
2017-04-25T02:07:20.071Z,23.96
2017-04-25T02:08:20.049Z,24.05
2017-04-25T02:09:20.284Z,24.34
2017-04-25T02:10:20.286Z,24.34
2017-04-25T02:11:20.087Z,24.34
2017-04-25T02:12:20.144Z,24.44
2017-04-25T02:13:20.377Z,24.34
2017-04-25T02:14:20.085Z,24.44
2017-04-25T02:15:20.294Z,23.86
2017-04-25T02:16:20.119Z,23.86
2017-04-25T02:17:20.378Z,24.54
2017-04-25T02:18:20.430Z,24.54
2017-04-25T02:19:20.140Z,24.34
2017-04-25T02:20:20.545Z,23.86
2017-04-25T02:21:20.144Z,24.15
2017-04-25T02:22:20.155Z,24.15
2017-04-25T02:23:20.209Z,24.44
2017-04-25T02:24:20.167Z,23.86
2017-04-25T02:25:20.369Z,23.76
2017-04-25T02:26:20.778Z,24.15
2017-04-25T02:27:20.178Z,24.15
2017-04-25T02:28:20.438Z,24.15
2017-04-25T02:29:20.542Z,24.34
2017-04-25T02:30:20.198Z,24.15
2017-04-25T02:31:20.204Z,23.96
2017-04-25T02:32:20.208Z,24.15
2017-04-25T02:33:20.421Z,24.15
2017-04-25T02:34:20.229Z,23.96
2017-04-25T02:35:21.694Z,23.96
2017-04-25T02:36:20.482Z,24.24
2017-04-25T02:37:20.288Z,24.15
2017-04-25T02:38:20.444Z,23.66
2017-04-25T02:39:20.452Z,24.34
2017-04-25T02:40:20.509Z,24.15
2017-04-25T02:41:20.509Z,24.24
2017-04-25T02:42:20.108Z,24.24
2017-04-25T02:43:20.677Z,24.44
2017-04-25T02:44:20.279Z,24.05
2017-04-25T02:45:20.464Z,24.05
2017-04-25T02:46:20.493Z,24.05
2017-04-25T02:47:20.293Z,24.05
2017-04-25T02:48:20.607Z,23.96
2017-04-25T02:49:20.715Z,24.34
2017-04-25T02:50:20.310Z,24.24
2017-04-25T02:51:20.367Z,24.44
2017-04-25T02:52:20.734Z,24.24
2017-04-25T02:53:20.329Z,24.34
2017-04-25T02:54:20.338Z,24.34
2017-04-25T02:55:20.315Z,24.24
2017-04-25T02:56:20.346Z,24.44
2017-04-25T02:57:20.354Z,24.24
2017-04-25T02:58:20.562Z,24.24
2017-04-25T02:59:20.405Z,24.05
2017-04-25T03:00:20.565Z,23.96
2017-04-25T03:01:20.573Z,23.86
2017-04-25T03:02:20.378Z,24.24
2017-04-25T03:03:20.587Z,24.44
2017-04-25T03:04:20.596Z,24.34
2017-04-25T03:05:20.626Z,24.15
2017-04-25T03:06:20.604Z,24.34
2017-04-25T03:07:20.459Z,23.86
2017-04-25T03:08:20.668Z,24.44
2017-04-25T03:09:20.375Z,24.15
2017-04-25T03:10:20.392Z,24.34
2017-04-25T03:11:20.384Z,23.86
2017-04-25T03:12:20.390Z,24.24
2017-04-25T03:13:20.400Z,24.34
2017-04-25T03:14:20.400Z,23.76
2017-04-25T03:15:20.411Z,24.24
2017-04-25T03:16:20.415Z,24.44
2017-04-25T03:17:20.415Z,24.24
2017-04-25T03:18:20.422Z,23.76
2017-04-25T03:19:20.428Z,23.86
2017-04-25T03:20:20.481Z,24.15
2017-04-25T03:21:20.460Z,24.05
2017-04-25T03:22:20.446Z,23.96
2017-04-25T03:23:20.505Z,24.15
2017-04-25T03:24:20.506Z,24.54
2017-04-25T03:25:20.464Z,24.34
2017-04-25T03:26:20.491Z,24.15
2017-04-25T03:27:20.544Z,24.24
2017-04-25T03:28:20.553Z,24.24
2017-04-25T03:29:20.507Z,24.24
2017-04-25T03:30:20.717Z,24.44
2017-04-25T03:31:20.496Z,24.54
2017-04-25T03:32:20.214Z,24.44
2017-04-25T03:33:20.531Z,24.54
2017-04-25T03:34:20.446Z,24.34
2017-04-25T03:35:20.742Z,24.34
2017-04-25T03:36:20.551Z,24.05
2017-04-25T03:37:20.530Z,24.15
2017-04-25T03:38:20.558Z,24.24
2017-04-25T03:39:20.595Z,24.24
2017-04-25T03:40:20.544Z,24.34
2017-04-25T03:41:20.576Z,24.44
2017-04-25T03:42:20.268Z,24.34
2017-04-25T03:43:20.587Z,24.44
2017-04-25T03:44:20.591Z,24.44
2017-04-25T03:45:20.599Z,24.34
2017-04-25T03:46:20.602Z,24.34
2017-04-25T03:47:20.661Z,24.54
2017-04-25T03:48:20.816Z,24.34
2017-04-25T03:49:20.599Z,24.44
2017-04-25T03:50:20.626Z,24.24
2017-04-25T03:51:20.682Z,24.34
2017-04-25T03:52:20.639Z,24.24
2017-04-25T03:53:20.847Z,24.54
2017-04-25T03:54:20.649Z,24.44
2017-04-25T03:55:20.654Z,23.96
2017-04-25T03:56:20.636Z,24.05
2017-04-25T03:57:20.712Z,24.34
2017-04-25T03:58:20.365Z,24.34
2017-04-25T03:59:20.661Z,24.44
2017-04-25T04:00:20.658Z,24.44
2017-04-25T04:01:20.684Z,24.24
2017-04-25T04:02:20.669Z,24.44
2017-04-25T04:03:20.675Z,24.34
2017-04-25T04:04:20.687Z,24.24
2017-04-25T04:05:20.888Z,24.34
2017-04-25T04:06:21.576Z,24.34
2017-04-25T04:07:20.717Z,24.34
2017-04-25T04:08:20.729Z,24.34
2017-04-25T04:09:20.395Z,24.24
2017-04-25T04:10:20.736Z,24.44
2017-04-25T04:11:20.742Z,24.24
2017-04-25T04:12:20.999Z,24.54
2017-04-25T04:13:20.753Z,24.34
2017-04-25T04:14:20.790Z,24.05
2017-04-25T04:15:20.742Z,24.05
2017-04-25T04:16:20.749Z,24.05
2017-04-25T04:17:20.779Z,23.86
2017-04-25T04:18:20.786Z,24.05
2017-04-25T04:19:20.768Z,24.05
2017-04-25T04:20:20.821Z,23.96
2017-04-25T04:21:21.006Z,23.96
2017-04-25T04:22:20.806Z,24.05
2017-04-25T04:23:20.496Z,23.96
2017-04-25T04:24:20.870Z,24.05
2017-04-25T04:25:20.827Z,23.96
2017-04-25T04:26:21.033Z,24.44
2017-04-25T04:27:21.110Z,24.15
2017-04-25T04:28:20.892Z,23.96
2017-04-25T04:29:20.511Z,24.34
2017-04-25T04:30:20.849Z,24.05
2017-04-25T04:31:20.860Z,24.44
2017-04-25T04:32:20.579Z,24.24
2017-04-25T04:33:20.845Z,24.24
2017-04-25T04:34:20.875Z,24.34
2017-04-25T04:35:20.907Z,24.44
2017-04-25T04:36:20.912Z,24.34
2017-04-25T04:37:21.192Z,24.44
2017-04-25T04:38:20.788Z,24.24
2017-04-25T04:39:20.902Z,24.34
2017-04-25T04:40:20.984Z,24.34
2017-04-25T04:41:20.943Z,24.44
2017-04-25T04:42:20.918Z,24.15
2017-04-25T04:43:20.926Z,24.05
2017-04-25T04:44:20.932Z,24.05
2017-04-25T04:45:20.936Z,23.96
2017-04-25T04:46:20.607Z,23.96
2017-04-25T04:47:20.950Z,24.24
2017-04-25T04:48:20.956Z,23.86
2017-04-25T04:49:21.158Z,24.44
2017-04-25T04:50:21.624Z,24.24
2017-04-25T04:51:20.997Z,24.44
2017-04-25T04:52:20.976Z,24.34
2017-04-25T04:53:20.647Z,24.44
2017-04-25T04:54:20.964Z,24.24
2017-04-25T04:55:20.970Z,24.24
2017-04-25T04:56:20.998Z,24.24
2017-04-25T04:57:21.004Z,24.15
2017-04-25T04:58:21.669Z,24.15
2017-04-25T04:59:20.991Z,24.24
2017-04-25T05:00:21.046Z,24.34
2017-04-25T05:01:21.231Z,24.24
2017-04-25T05:02:21.009Z,24.34
2017-04-25T05:03:21.064Z,24.24
2017-04-25T05:04:21.045Z,23.96
2017-04-25T05:05:20.743Z,23.86
2017-04-25T05:06:21.113Z,24.15
2017-04-25T05:07:21.089Z,24.05
2017-04-25T05:08:21.093Z,24.05
2017-04-25T05:09:21.081Z,24.05
2017-04-25T05:10:21.054Z,24.24
2017-04-25T05:11:21.118Z,23.76
2017-04-25T05:12:20.803Z,23.96
2017-04-25T05:13:20.781Z,24.34
2017-04-25T05:14:20.769Z,24.44
2017-04-25T05:15:21.131Z,24.24
2017-04-25T05:16:21.090Z,24.34
2017-04-25T05:17:20.822Z,24.34
2017-04-25T05:18:21.529Z,24.05
2017-04-25T05:19:21.107Z,24.05
2017-04-25T05:20:21.111Z,24.44
2017-04-25T05:21:21.138Z,24.34
2017-04-25T05:22:20.827Z,24.44
2017-04-25T05:23:21.131Z,24.34
2017-04-25T05:24:21.138Z,24.34
2017-04-25T05:25:21.139Z,23.96
2017-04-25T05:26:20.891Z,24.24
2017-04-25T05:27:21.151Z,23.86
2017-04-25T05:28:21.159Z,23.86
2017-04-25T05:29:21.216Z,24.05
2017-04-25T05:30:21.169Z,23.96
2017-04-25T05:31:21.177Z,24.05
2017-04-25T05:32:20.921Z,24.05
2017-04-25T05:33:20.873Z,23.96
2017-04-25T05:34:21.194Z,23.96
2017-04-25T05:35:21.198Z,23.96
2017-04-25T05:36:21.255Z,24.44
2017-04-25T05:37:21.209Z,24.44
2017-04-25T05:38:20.903Z,24.05
2017-04-25T05:39:21.275Z,24.24
2017-04-25T05:40:21.275Z,24.34
2017-04-25T05:41:21.233Z,24.24
2017-04-25T05:42:21.236Z,24.34
2017-04-25T05:43:21.246Z,24.05
2017-04-25T05:44:21.252Z,23.86
2017-04-25T05:45:21.254Z,23.96
2017-04-25T05:46:21.315Z,23.96
2017-04-25T05:47:21.267Z,24.24
2017-04-25T05:48:21.009Z,23.96
2017-04-25T05:49:21.332Z,24.05
2017-04-25T05:50:21.283Z,23.96
2017-04-25T05:51:21.288Z,24.05
2017-04-25T05:52:21.298Z,24.05
2017-04-25T05:53:21.353Z,24.05
2017-04-25T05:54:21.309Z,23.96
2017-04-25T05:55:21.314Z,24.34
2017-04-25T05:56:21.321Z,24.44
2017-04-25T05:57:21.327Z,24.15
2017-04-25T05:58:21.380Z,24.44
2017-04-25T05:59:21.388Z,24.34
2017-04-25T06:00:21.348Z,24.15
2017-04-25T06:01:21.348Z,24.34
2017-04-25T06:02:21.355Z,24.24
2017-04-25T06:03:21.411Z,24.05
2017-04-25T06:04:21.367Z,24.54
2017-04-25T06:05:21.374Z,23.96
2017-04-25T06:06:21.380Z,24.15
2017-04-25T06:07:21.382Z,24.05
2017-04-25T06:08:21.399Z,24.24
2017-04-25T06:09:21.397Z,24.44
2017-04-25T06:10:21.405Z,24.34
2017-04-25T06:11:21.406Z,24.54
2017-04-25T06:12:21.413Z,24.24
2017-04-25T06:13:21.416Z,24.44
2017-04-25T06:14:21.472Z,24.34
2017-04-25T06:15:21.428Z,24.15
2017-04-25T06:16:21.485Z,24.24
2017-04-25T06:17:21.123Z,24.44
2017-04-25T06:18:21.497Z,24.34
2017-04-25T06:19:21.493Z,24.05
2017-04-25T06:20:21.450Z,24.05
2017-04-25T06:21:21.455Z,23.57
2017-04-25T06:22:21.459Z,23.39
2017-04-25T06:23:21.470Z,22.33
2017-04-25T06:24:21.164Z,22.63
2017-04-25T06:25:21.481Z,23.11
2017-04-25T06:26:21.485Z,22.82
2017-04-25T06:27:21.494Z,22.44
2017-04-25T06:28:21.494Z,22.06
2017-04-25T06:29:21.503Z,20.52
2017-04-25T06:30:21.507Z,18.71
2017-04-25T06:31:21.515Z,17.4
2017-04-25T06:32:21.571Z,17.41
2017-04-25T06:33:21.539Z,18.18
2017-04-25T06:34:21.228Z,19.8
2017-04-25T06:35:21.550Z,20.65
2017-04-25T06:36:21.555Z,21.61
2017-04-25T06:37:21.566Z,21.97
2017-04-25T06:38:21.567Z,22.64
2017-04-25T06:39:21.316Z,22.91
2017-04-25T06:40:21.582Z,23.3
2017-04-25T06:41:21.592Z,23.21
2017-04-25T06:42:21.595Z,23.39
2017-04-25T06:43:21.602Z,23.77
2017-04-25T06:44:21.616Z,23.77
2017-04-25T06:45:21.663Z,24.07
2017-04-25T06:46:21.620Z,24.07
2017-04-25T06:47:21.626Z,24.16
2017-04-25T06:48:21.630Z,24.16
2017-04-25T06:49:21.639Z,23.87
2017-04-25T06:50:21.641Z,23.97
2017-04-25T06:51:21.649Z,24.24
2017-04-25T06:52:21.654Z,24.34
2017-04-25T06:53:21.663Z,24.15
2017-04-25T06:54:21.672Z,24.07
2017-04-25T06:55:21.727Z,24.15
2017-04-25T06:56:21.680Z,24.07
2017-04-25T06:57:21.684Z,23.97
2017-04-25T06:58:21.741Z,24.16
2017-04-25T06:59:21.390Z,24.05
2017-04-25T07:00:21.708Z,23.76
2017-04-25T07:01:21.708Z,24.07
2017-04-25T07:02:21.769Z,23.68
2017-04-25T07:03:21.721Z,23.39
2017-04-25T07:04:21.731Z,23.39
2017-04-25T07:05:21.471Z,23.49
2017-04-25T07:06:21.794Z,23.68
2017-04-25T07:07:21.746Z,23.29
2017-04-25T07:08:21.754Z,23.19
2017-04-25T07:09:21.763Z,23
2017-04-25T07:10:21.756Z,23
2017-04-25T07:11:21.760Z,22.06
2017-04-25T07:12:36.339Z,22.26
2017-04-25T07:13:21.825Z,22.25
2017-04-25T07:14:21.829Z,22.16
2017-04-25T07:15:21.836Z,21.96
2017-04-25T07:16:21.841Z,22.06
2017-04-25T07:17:21.538Z,22.16
2017-04-25T07:18:21.817Z,22.34
2017-04-25T07:19:21.812Z,22.34
2017-04-25T07:20:21.818Z,21.96
2017-04-25T07:21:21.828Z,22.16
2017-04-25T07:22:21.879Z,21.78
2017-04-25T07:23:21.885Z,21.97
2017-04-25T07:24:21.843Z,21.58
2017-04-25T07:25:21.848Z,21.2
2017-04-25T07:26:21.954Z,21.11
2017-04-25T07:27:21.861Z,21.11
2017-04-25T07:28:21.867Z,21.01
2017-04-25T07:29:21.562Z,20.62
2017-04-25T07:30:21.623Z,20.73
2017-04-25T07:31:21.889Z,20.54
2017-04-25T07:32:21.585Z,20.44
2017-04-25T07:33:21.898Z,20.44
2017-04-25T07:34:21.907Z,20.36
2017-04-25T07:35:21.602Z,19.96
2017-04-25T07:36:21.968Z,19.87
2017-04-25T07:37:21.926Z,19.38
2017-04-25T07:38:21.932Z,19.68
2017-04-25T07:39:21.938Z,19.68
2017-04-25T07:40:21.943Z,19.78
2017-04-25T07:41:22.000Z,19.49
2017-04-25T07:42:21.960Z,19.68
2017-04-25T07:43:21.962Z,19.1
2017-04-25T07:44:21.970Z,19.1
2017-04-25T07:45:21.978Z,19.5
2017-04-25T07:46:21.983Z,18.92
2017-04-25T07:47:21.682Z,18.92
2017-04-25T07:48:21.994Z,18.73
2017-04-25T07:49:21.692Z,19.4
2017-04-25T07:50:22.011Z,19.02
2017-04-25T07:51:22.021Z,18.73
2017-04-25T07:52:22.024Z,18.73
2017-04-25T07:53:22.031Z,18.83
2017-04-25T07:54:22.042Z,19.02
2017-04-25T07:55:22.048Z,18.64
2017-04-25T07:56:22.047Z,18.93
2017-04-25T07:57:22.058Z,18.83
2017-04-25T07:58:22.063Z,18.73
2017-04-25T07:59:22.071Z,18.93
2017-04-25T08:00:22.077Z,18.83
2017-04-25T08:01:21.824Z,18.83
2017-04-25T08:02:22.089Z,18.93
2017-04-25T08:03:22.099Z,19.02
2017-04-25T08:04:22.105Z,18.93
2017-04-25T08:05:22.162Z,18.83
2017-04-25T08:06:22.170Z,18.73
2017-04-25T08:07:22.127Z,18.64
2017-04-25T08:08:22.135Z,18.93
2017-04-25T08:09:22.190Z,19.02
2017-04-25T08:10:22.196Z,18.83
2017-04-25T08:11:22.205Z,18.93
2017-04-25T08:12:22.160Z,18.93
2017-04-25T08:13:21.856Z,18.83
2017-04-25T08:14:22.173Z,18.73
2017-04-25T08:15:22.230Z,19.11
2017-04-25T08:16:22.188Z,19.31
2017-04-25T08:17:22.242Z,19.11
2017-04-25T08:18:21.944Z,19.11
2017-04-25T08:19:22.261Z,19.4
2017-04-25T08:20:21.905Z,19.02
2017-04-25T08:21:22.272Z,18.73
2017-04-25T08:22:21.919Z,18.83
2017-04-25T08:23:22.248Z,18.93
2017-04-25T08:24:21.982Z,18.82
2017-04-25T08:25:22.250Z,19.31
2017-04-25T08:26:22.257Z,19.4
2017-04-25T08:27:22.263Z,19.4
2017-04-25T08:28:22.278Z,19.11
2017-04-25T08:29:22.280Z,19.21
2017-04-25T08:30:22.334Z,19.4
2017-04-25T08:31:22.290Z,19.02
2017-04-25T08:32:22.300Z,18.93
2017-04-25T08:33:22.311Z,18.73
2017-04-25T08:34:22.315Z,18.73
2017-04-25T08:35:22.063Z,18.92
2017-04-25T08:36:22.023Z,18.64
2017-04-25T08:37:22.334Z,18.73
2017-04-25T08:38:22.344Z,18.82
2017-04-25T08:39:22.364Z,18.54
2017-04-25T08:40:22.404Z,18.64
2017-04-25T08:41:22.363Z,18.84
2017-04-25T08:42:22.373Z,18.83
2017-04-25T08:43:22.068Z,18.93
2017-04-25T08:44:22.073Z,19.02
2017-04-25T08:45:22.082Z,19.5
2017-04-25T08:46:22.447Z,19.5
2017-04-25T08:47:22.405Z,19.21
2017-04-25T08:48:22.416Z,18.82
2017-04-25T08:49:22.111Z,19.02
2017-04-25T08:50:22.429Z,18.73
2017-04-25T08:51:22.484Z,19.31
2017-04-25T08:52:22.494Z,18.64
2017-04-25T08:53:22.185Z,18.93
2017-04-25T08:54:22.455Z,19.02
2017-04-25T08:55:22.515Z,18.93
2017-04-25T08:56:22.574Z,19.02
2017-04-25T08:57:22.479Z,18.73
2017-04-25T08:58:22.533Z,19.02
2017-04-25T08:59:22.495Z,19.31
2017-04-25T09:00:22.497Z,19.11
2017-04-25T09:01:22.509Z,19.11
2017-04-25T09:02:22.512Z,19.11
2017-04-25T09:03:22.522Z,19.4
2017-04-25T09:04:22.832Z,19.11
2017-04-25T09:05:22.535Z,19.21
2017-04-25T09:06:22.592Z,19.11
2017-04-25T09:07:22.547Z,19.02
2017-04-25T09:08:22.554Z,19.22
2017-04-25T09:09:22.565Z,19.12
2017-04-25T09:10:22.573Z,19.8
2017-04-25T09:11:22.577Z,19.79
2017-04-25T09:12:22.634Z,19.6
2017-04-25T09:13:22.642Z,19.22
2017-04-25T09:14:22.603Z,20.08
2017-04-25T09:15:22.603Z,19.11
2017-04-25T09:16:22.611Z,19.22
2017-04-25T09:17:22.621Z,19.12
2017-04-25T09:18:22.628Z,19.12
2017-04-25T09:19:22.633Z,19.12
2017-04-25T09:20:22.640Z,19.42
2017-04-25T09:21:22.647Z,19.02
2017-04-25T09:22:22.654Z,19.22
2017-04-25T09:23:22.661Z,18.83
2017-04-25T09:24:22.362Z,19.51
2017-04-25T09:25:22.675Z,19.22
2017-04-25T09:26:22.733Z,19.7
2017-04-25T09:27:22.378Z,19.6
2017-04-25T09:28:22.387Z,19.7
2017-04-25T09:29:22.703Z,19.49
2017-04-25T09:30:22.713Z,19.49
2017-04-25T09:31:22.720Z,19.88
2017-04-25T09:32:22.724Z,19.31
2017-04-25T09:33:22.732Z,19.6
2017-04-25T09:34:22.430Z,20.08
2017-04-25T09:35:22.747Z,19.7
2017-04-25T09:36:22.755Z,19.78
2017-04-25T09:37:22.759Z,19.79
2017-04-25T09:38:22.767Z,19.02
2017-04-25T09:39:22.776Z,19.42
2017-04-25T09:40:22.784Z,19.22
2017-04-25T09:41:22.790Z,19.02
2017-04-25T09:42:22.799Z,19.8
2017-04-25T09:43:22.495Z,19.5
2017-04-25T09:44:22.864Z,19.7
2017-04-25T09:45:22.818Z,19.79
2017-04-25T09:46:22.540Z,19.9
2017-04-25T09:47:22.833Z,19.61
2017-04-25T09:48:22.888Z,19.9
2017-04-25T09:49:22.848Z,19.8
2017-04-25T09:50:22.905Z,20.28
2017-04-25T09:51:22.911Z,19.51
2017-04-25T09:52:22.871Z,19.99
2017-04-25T09:53:22.878Z,19.61
2017-04-25T09:54:22.881Z,19.9
2017-04-25T09:55:23.190Z,19.22
2017-04-25T09:56:22.585Z,19.8
2017-04-25T09:57:22.904Z,20
2017-04-25T09:58:22.960Z,19.51
2017-04-25T09:59:22.917Z,19.61
2017-04-25T10:00:22.982Z,19.8
2017-04-25T10:01:22.621Z,20.19
2017-04-25T10:02:22.639Z,20.09
2017-04-25T10:03:22.635Z,20.08
2017-04-25T10:04:22.644Z,20.47
2017-04-25T10:05:22.700Z,20.37
2017-04-25T10:06:23.016Z,20.47
2017-04-25T10:07:22.975Z,20.37
2017-04-25T10:08:23.037Z,20.28
2017-04-25T10:09:22.989Z,20.47
2017-04-25T10:10:22.687Z,20.18
2017-04-25T10:11:23.004Z,20.48
2017-04-25T10:12:23.061Z,20.47
2017-04-25T10:13:23.018Z,20.47
2017-04-25T10:14:23.037Z,20.48
2017-04-25T10:15:23.031Z,20.28
2017-04-25T10:16:23.091Z,20.67
2017-04-25T10:17:23.096Z,20.76
2017-04-25T10:18:23.055Z,20.57
2017-04-25T10:19:23.060Z,20.47
2017-04-25T10:20:23.071Z,20.58
2017-04-25T10:21:22.764Z,20.37
2017-04-25T10:22:23.081Z,20.37
2017-04-25T10:23:23.089Z,20.86
2017-04-25T10:24:22.787Z,20.86
2017-04-25T10:25:23.155Z,20.86
2017-04-25T10:26:23.115Z,20.65
2017-04-25T10:27:22.803Z,20.56
2017-04-25T10:28:23.125Z,20.46
2017-04-25T10:29:23.179Z,20.85
2017-04-25T10:30:23.191Z,20.67
2017-04-25T10:31:22.837Z,20.28
2017-04-25T10:32:22.889Z,20.76
2017-04-25T10:33:23.211Z,20.57
2017-04-25T10:34:22.855Z,20.47
2017-04-25T10:35:23.172Z,20.28
2017-04-25T10:36:23.181Z,20.37
2017-04-25T10:37:22.880Z,20.65
2017-04-25T10:38:23.192Z,20.65
2017-04-25T10:39:23.254Z,20.85
2017-04-25T10:40:23.322Z,20.85
2017-04-25T10:41:22.954Z,20.56
2017-04-25T10:42:23.223Z,20.46
2017-04-25T10:43:23.227Z,19.89
2017-04-25T10:44:23.284Z,20.08
2017-04-25T10:45:23.299Z,20.08
2017-04-25T10:46:23.247Z,20.18
2017-04-25T10:47:23.306Z,19.89
2017-04-25T10:48:23.260Z,20.18
2017-04-25T10:49:23.274Z,19.79
2017-04-25T10:50:23.275Z,19.79
2017-04-25T10:51:23.333Z,19.89
2017-04-25T10:52:23.031Z,19.79
2017-04-25T10:53:23.301Z,19.7
2017-04-25T10:54:23.300Z,19.79
2017-04-25T10:55:23.048Z,19.89
2017-04-25T10:56:23.104Z,19.89
2017-04-25T10:57:23.321Z,19.7
2017-04-25T10:58:23.019Z,19.89
2017-04-25T10:59:23.344Z,19.89
2017-04-25T11:00:23.393Z,19.6
2017-04-25T11:01:23.351Z,19.79
2017-04-25T11:02:23.358Z,19.79
2017-04-25T11:03:23.366Z,19.99
2017-04-25T11:04:23.372Z,19.79
2017-04-25T11:05:23.429Z,19.7
2017-04-25T11:06:23.076Z,19.79
2017-04-25T11:07:23.087Z,19.7
2017-04-25T11:08:23.449Z,20.18
2017-04-25T11:09:23.469Z,20.18
2017-04-25T11:10:23.415Z,19.79
2017-04-25T11:11:23.426Z,20.46
2017-04-25T11:12:23.427Z,20.17
2017-04-25T11:13:23.434Z,20.27
2017-04-25T11:14:23.132Z,20.07
2017-04-25T11:15:23.501Z,20.17
2017-04-25T11:16:23.178Z,20.27
2017-04-25T11:17:23.464Z,20.27
2017-04-25T11:18:23.469Z,20.27
2017-04-25T11:19:23.477Z,20.27
2017-04-25T11:20:23.483Z,19.79
2017-04-25T11:21:23.491Z,19.61
2017-04-25T11:22:23.546Z,19.7
2017-04-25T11:23:23.245Z,20.28
2017-04-25T11:24:23.512Z,19.79
2017-04-25T11:25:23.207Z,20.18
2017-04-25T11:26:23.524Z,19.79
2017-04-25T11:27:23.631Z,19.89
2017-04-25T11:28:23.537Z,19.8
2017-04-25T11:29:23.548Z,19.61
2017-04-25T11:30:23.243Z,19.8
2017-04-25T11:31:23.562Z,19.51
2017-04-25T11:32:23.568Z,19.9
2017-04-25T11:33:23.578Z,19.42
2017-04-25T11:34:23.636Z,19.9
2017-04-25T11:35:23.639Z,19.7
2017-04-25T11:36:23.599Z,19.51
2017-04-25T11:37:23.655Z,20
2017-04-25T11:38:23.614Z,20.67
2017-04-25T11:39:23.672Z,20.18
2017-04-25T11:40:23.627Z,20.47
2017-04-25T11:41:23.324Z,20.18
2017-04-25T11:42:23.642Z,20.47
2017-04-25T11:43:23.699Z,20.28
2017-04-25T11:44:23.657Z,20.19
2017-04-25T11:45:23.713Z,19.61
2017-04-25T11:46:23.722Z,20.65
2017-04-25T11:47:23.725Z,20.56
2017-04-25T11:48:23.684Z,20.84
2017-04-25T11:49:23.743Z,20.65
2017-04-25T11:50:23.386Z,20.36
2017-04-25T11:51:23.705Z,20.65
2017-04-25T11:52:23.761Z,20.26
2017-04-25T11:53:23.821Z,20.74
2017-04-25T11:54:23.779Z,20.55
2017-04-25T11:55:23.731Z,20.84
2017-04-25T11:56:23.742Z,20.64
2017-04-25T11:57:23.750Z,21.02
2017-04-25T11:58:23.753Z,20.74
2017-04-25T11:59:23.761Z,20.45
2017-04-25T12:00:23.467Z,20.17
2017-04-25T12:01:23.774Z,19.5
2017-04-25T12:02:23.470Z,20.18
2017-04-25T12:03:23.794Z,19.8
2017-04-25T12:04:23.534Z,19.8
2017-04-25T12:05:23.802Z,19.8
2017-04-25T12:06:23.813Z,19.9
2017-04-25T12:07:23.814Z,20.09
2017-04-25T12:08:23.566Z,20
2017-04-25T12:09:23.833Z,20.08
2017-04-25T12:10:23.852Z,20.27
2017-04-25T12:11:23.895Z,20.37
2017-04-25T12:12:23.855Z,19.98
2017-04-25T12:13:23.859Z,19.89
2017-04-25T12:14:23.865Z,19.99
2017-04-25T12:15:23.917Z,20.08
2017-04-25T12:16:23.620Z,19.89
2017-04-25T12:17:23.888Z,19.98
2017-04-25T12:18:23.951Z,20.28
2017-04-25T12:19:23.902Z,20.18
2017-04-25T12:20:23.909Z,20.08
2017-04-25T12:21:23.964Z,19.4
2017-04-25T12:22:23.671Z,20.08
2017-04-25T12:23:23.619Z,19.5
2017-04-25T12:24:23.936Z,19.79
2017-04-25T12:25:23.943Z,19.68
2017-04-25T12:26:24.002Z,19.99
2017-04-25T12:27:23.958Z,19.89
2017-04-25T12:28:23.964Z,19.7
2017-04-25T12:29:23.659Z,19.89
2017-04-25T12:30:23.979Z,19.5
2017-04-25T12:31:24.048Z,19.4
2017-04-25T12:32:23.992Z,19.7
2017-04-25T12:33:24.001Z,19.89
2017-04-25T12:34:24.071Z,19.89
2017-04-25T12:35:24.015Z,19.89
2017-04-25T12:36:23.760Z,19.99
2017-04-25T12:37:24.078Z,20.08
2017-04-25T12:38:24.033Z,19.78
2017-04-25T12:39:23.783Z,19.88
2017-04-25T12:40:24.046Z,20.27
2017-04-25T12:41:23.746Z,20.47
2017-04-25T12:42:24.112Z,20.65
2017-04-25T12:43:24.067Z,20.37
2017-04-25T12:44:24.080Z,20.37
2017-04-25T12:45:23.822Z,20.65
2017-04-25T12:46:24.122Z,20.65
2017-04-25T12:47:24.096Z,20.75
2017-04-25T12:48:24.101Z,20.56
2017-04-25T12:49:24.110Z,20.75
2017-04-25T12:50:24.118Z,20.65
2017-04-25T12:51:23.812Z,20.65
2017-04-25T12:52:24.131Z,20.46
2017-04-25T12:53:24.189Z,20.46
2017-04-25T12:54:24.146Z,20.84